Adell, WI

5:20 PM CST on February 26, 2015 (GMT -0600)
Flying Field | Change Station
CLOSE
Current Station
Personal Weather Station
Location: Waldo, WI
Elevation: 807 ft
Nearby Weather Stations
Active Advisory: Special Statement

Elev 807 ft 43.67 °N, 87.94 °W | Updated 1 minute ago

Clear
Clear
9.3 °F
Feels Like -3 °F
N
8.1
Wind Variable Wind from North
Gusts 11.0 mph

Today
High -- | Low -- °F
--% Chance of Precip.
Yesterday
High -- | Low -- °F
Precip. -- in
6:33 AM 5:36 PM
Waxing Gibbous, 63% visible
Pressure 30.38 in
Visibility 10.0 miles
Clouds Clear
Windchill -3 °F
Dew Point -2 °F
Humidity 59%
Rainfall 0.00 in
Snow Depth Not available.
UV 0 out of 12
Pollen .40 out of 12
Air Quality Not available.
Flu Activity Not available.
METAR KSBM 262253Z AUTO 36008KT 10SM CLR M12/M21 A3032 RMK AO2 SLP288 T11221206

More Conditions Fewer Conditions

Pressure 30.38 in
Visibility 10.0 miles
Clouds Clear
Windchill -3 °F
Dew Point -2 °F
Humidity 59%
Rainfall 0.00 in
Snow Depth Not available.
UV 0 out of 12
Pollen .40 out of 12
Air Quality Not available.
Flu Activity Not available.
METAR KSBM 262253Z AUTO 36008KT 10SM CLR M12/M21 A3032 RMK AO2 SLP288 T11221206

More Conditions Fewer Conditions

10-Day Weather Forecast

Almanac

Astronomy

Feb. 26, 2015 Rise Set
Actual Time
Civil Twilight
Nautical Twilight
Astronomical Twilight
Moon
Length of Visible Light
Length of Day
Tomorrow will be .
, % of the Moon is Illuminated

Today's Extremes

State Highs State Lows

Community

WunderPhotos

Upload Photos

1,800,526 photos uploaded!

WunderBlogs® & News

Nearby

Air Quality

  Air Quality AQ Index Pollutant
Not available.

Snow Depth

Station Depth Elevation

Earthquake Activity

City Distance Mag. Time & Date
Minimum magnitude displayed is 2.5.

Coastal Water Temperatures

Place Temperature

Nearby Weather Stations

Special Statement
Statement as of 2:44 PM CST on February 26, 2015

... Bitterly cold wind chills return tonight...

An Arctic air mass will move into the region later tonight into
Friday morning... along with an area of high pressure from the
west. Winds will weaken as the high moves into the region. Clear
skies tonight will promote cooler conditions as well. Wind chill
values will approach 20 below zero in our forecast area. The
coldest wind chills will be between 4 and 7 am.

If going out tonight... be sure to dress in layers and limit
exposure.